Current Weather



TAF Data Links

METAR Data Links

Latest METAR/TAF Data


Available data for KAUS from the past 2 hours
AUSTIN, TX
Metar
KAUS 211753Z 04009KT 10SM OVC034 13/07 A2994 RMK AO2 SLP143 60000 T01280067 10128 20100 58007

17:53 UTC

Wind: 40° 9kt

Visibility: 10 SM

Sky: OVC 3400 ft

Temp: 13 deg C / 55.4 deg F

Dewpoint: 7 deg C / 44.6 deg F

Pressure: 29.94 inHg

TAF
KAUS 211743Z 2118/2224 02009KT P6SM OVC035 FM212000 03010KT P6SM BKN025 OVC035 FM212300 04011KT P6SM BKN015 OVC025 FM220200 03006KT P6SM OVC009 FM220700 02006KT 1SM -DZ BR OVC004 FM221600 03008KT 2SM BR VCSH BKN006 OVC010


Available data for KEDC from the past 2 hours
AUSTIN EXEC, TX
Metar
KEDC 211835Z AUTO 04010KT 10SM OVC033 12/06 A2996 RMK AO2

18:35 UTC

Wind: 40° 10kt

Visibility: 10 SM

Sky: OVC 3300 ft

Temp: 12 deg C / 53.6 deg F

Dewpoint: 6 deg C / 42.8 deg F

Pressure: 29.96 inHg



Available data for KRYW from the past 2 hours
LAGO VISTA, TX
Metar
KRYW 211835Z AUTO 06007KT 10SM OVC035 12/02 A2995 RMK AO2 T01160023

18:35 UTC

Wind: 60° 7kt

Visibility: 10 SM

Sky: OVC 3500 ft

Temp: 12 deg C / 53.6 deg F

Dewpoint: 2 deg C / 35.6 deg F

Pressure: 29.95 inHg